sensor_id;sensor_type;location;lat;lon;timestamp;temperature;humidity
74224;SHT31;62585;49.706;18.216;2022-10-29T00:00:21;11.83;87.28
74224;SHT31;62585;49.706;18.216;2022-10-29T00:03:07;11.76;87.47
74224;SHT31;62585;49.706;18.216;2022-10-29T00:05:33;11.75;87.49
74224;SHT31;62585;49.706;18.216;2022-10-29T00:07:59;11.67;87.64
74224;SHT31;62585;49.706;18.216;2022-10-29T00:10:25;11.79;87.40
74224;SHT31;62585;49.706;18.216;2022-10-29T00:12:51;11.83;86.98
74224;SHT31;62585;49.706;18.216;2022-10-29T00:15:17;11.79;87.35
74224;SHT31;62585;49.706;18.216;2022-10-29T00:17:43;11.73;87.38
74224;SHT31;62585;49.706;18.216;2022-10-29T00:20:09;11.69;87.82
74224;SHT31;62585;49.706;18.216;2022-10-29T00:22:38;11.66;87.77
74224;SHT31;62585;49.706;18.216;2022-10-29T00:25:04;11.55;88.34
74224;SHT31;62585;49.706;18.216;2022-10-29T00:27:30;11.43;88.88
74224;SHT31;62585;49.706;18.216;2022-10-29T00:29:56;11.51;88.66
74224;SHT31;62585;49.706;18.216;2022-10-29T00:32:21;11.43;89.01
74224;SHT31;62585;49.706;18.216;2022-10-29T00:34:47;11.55;88.80
74224;SHT31;62585;49.706;18.216;2022-10-29T00:37:13;11.52;88.82
74224;SHT31;62585;49.706;18.216;2022-10-29T00:39:39;11.52;88.71
74224;SHT31;62585;49.706;18.216;2022-10-29T00:42:05;11.62;88.58
74224;SHT31;62585;49.706;18.216;2022-10-29T00:44:35;11.58;88.41
74224;SHT31;62585;49.706;18.216;2022-10-29T00:47:47;11.61;88.17
74224;SHT31;62585;49.706;18.216;2022-10-29T00:50:14;11.56;88.40
74224;SHT31;62585;49.706;18.216;2022-10-29T00:52:43;11.59;88.22
74224;SHT31;62585;49.706;18.216;2022-10-29T00:55:11;11.52;88.54
74224;SHT31;62585;49.706;18.216;2022-10-29T00:57:45;11.45;88.75
74224;SHT31;62585;49.706;18.216;2022-10-29T01:00:14;11.34;89.26
74224;SHT31;62585;49.706;18.216;2022-10-29T01:02:41;11.29;89.37
74224;SHT31;62585;49.706;18.216;2022-10-29T01:05:08;11.34;89.11
74224;SHT31;62585;49.706;18.216;2022-10-29T01:07:35;11.29;89.29
74224;SHT31;62585;49.706;18.216;2022-10-29T01:10:01;11.39;89.24
74224;SHT31;62585;49.706;18.216;2022-10-29T01:15:25;11.38;88.96
74224;SHT31;62585;49.706;18.216;2022-10-29T01:18:09;11.34;88.98
74224;SHT31;62585;49.706;18.216;2022-10-29T01:26:36;11.38;89.00
74224;SHT31;62585;49.706;18.216;2022-10-29T01:29:09;11.31;89.19
74224;SHT31;62585;49.706;18.216;2022-10-29T01:31:49;11.34;89.18
74224;SHT31;62585;49.706;18.216;2022-10-29T01:34:33;11.38;88.97
74224;SHT31;62585;49.706;18.216;2022-10-29T01:40:05;11.29;89.18
74224;SHT31;62585;49.706;18.216;2022-10-29T01:42:39;11.35;89.16
74224;SHT31;62585;49.706;18.216;2022-10-29T01:45:16;11.35;89.04
74224;SHT31;62585;49.706;18.216;2022-10-29T01:47:53;11.38;88.89
74224;SHT31;62585;49.706;18.216;2022-10-29T01:50:21;11.38;88.92
74224;SHT31;62585;49.706;18.216;2022-10-29T01:52:48;11.35;88.92
74224;SHT31;62585;49.706;18.216;2022-10-29T01:55:18;11.38;89.06
74224;SHT31;62585;49.706;18.216;2022-10-29T01:57:44;11.40;88.83
74224;SHT31;62585;49.706;18.216;2022-10-29T02:00:13;11.35;89.11
74224;SHT31;62585;49.706;18.216;2022-10-29T02:08:43;11.39;89.11
74224;SHT31;62585;49.706;18.216;2022-10-29T02:14:29;11.55;88.66
74224;SHT31;62585;49.706;18.216;2022-10-29T02:16:57;11.56;88.62
74224;SHT31;62585;49.706;18.216;2022-10-29T02:19:29;11.56;88.54
74224;SHT31;62585;49.706;18.216;2022-10-29T02:21:55;11.56;88.62
74224;SHT31;62585;49.706;18.216;2022-10-29T02:24:21;11.43;88.93
74224;SHT31;62585;49.706;18.216;2022-10-29T02:26:46;11.43;88.85
74224;SHT31;62585;49.706;18.216;2022-10-29T02:29:12;11.45;89.09
74224;SHT31;62585;49.706;18.216;2022-10-29T02:31:37;11.46;89.12
74224;SHT31;62585;49.706;18.216;2022-10-29T02:34:03;11.54;88.68
74224;SHT31;62585;49.706;18.216;2022-10-29T02:36:29;11.52;88.56
74224;SHT31;62585;49.706;18.216;2022-10-29T02:38:54;11.55;88.43
74224;SHT31;62585;49.706;18.216;2022-10-29T02:41:20;11.49;88.52
74224;SHT31;62585;49.706;18.216;2022-10-29T02:43:46;11.51;88.81
74224;SHT31;62585;49.706;18.216;2022-10-29T02:46:15;11.42;88.95
74224;SHT31;62585;49.706;18.216;2022-10-29T02:48:41;11.55;88.66
74224;SHT31;62585;49.706;18.216;2022-10-29T02:51:08;11.55;88.30
74224;SHT31;62585;49.706;18.216;2022-10-29T02:53:33;11.55;88.16
74224;SHT31;62585;49.706;18.216;2022-10-29T02:55:59;11.66;87.93
74224;SHT31;62585;49.706;18.216;2022-10-29T02:58:25;11.56;88.15
74224;SHT31;62585;49.706;18.216;2022-10-29T03:00:51;11.52;88.04
74224;SHT31;62585;49.706;18.216;2022-10-29T03:03:17;11.58;88.07
74224;SHT31;62585;49.706;18.216;2022-10-29T03:05:43;11.48;88.39
74224;SHT31;62585;49.706;18.216;2022-10-29T03:08:09;11.54;88.19
74224;SHT31;62585;49.706;18.216;2022-10-29T03:10:35;11.63;87.85
74224;SHT31;62585;49.706;18.216;2022-10-29T03:13:01;11.51;88.12
74224;SHT31;62585;49.706;18.216;2022-10-29T03:15:27;11.61;88.00
74224;SHT31;62585;49.706;18.216;2022-10-29T03:17:52;11.69;87.71
74224;SHT31;62585;49.706;18.216;2022-10-29T03:20:18;11.72;87.57
74224;SHT31;62585;49.706;18.216;2022-10-29T03:22:44;11.77;86.98
74224;SHT31;62585;49.706;18.216;2022-10-29T03:25:09;11.91;86.64
74224;SHT31;62585;49.706;18.216;2022-10-29T03:27:42;11.91;86.43
74224;SHT31;62585;49.706;18.216;2022-10-29T03:30:10;11.96;86.34
74224;SHT31;62585;49.706;18.216;2022-10-29T03:32:39;11.91;86.45
74224;SHT31;62585;49.706;18.216;2022-10-29T03:35:07;11.86;86.75
74224;SHT31;62585;49.706;18.216;2022-10-29T03:37:32;11.94;86.67
74224;SHT31;62585;49.706;18.216;2022-10-29T03:39:58;11.89;86.63
74224;SHT31;62585;49.706;18.216;2022-10-29T03:42:24;11.93;86.79
74224;SHT31;62585;49.706;18.216;2022-10-29T03:44:50;11.80;87.13
74224;SHT31;62585;49.706;18.216;2022-10-29T03:47:15;11.80;87.34
74224;SHT31;62585;49.706;18.216;2022-10-29T03:49:41;11.79;87.33
74224;SHT31;62585;49.706;18.216;2022-10-29T03:52:07;11.79;87.40
74224;SHT31;62585;49.706;18.216;2022-10-29T03:54:32;11.90;87.16
74224;SHT31;62585;49.706;18.216;2022-10-29T03:56:58;11.83;87.87
74224;SHT31;62585;49.706;18.216;2022-10-29T03:59:24;11.91;87.66
74224;SHT31;62585;49.706;18.216;2022-10-29T04:01:50;11.82;87.76
74224;SHT31;62585;49.706;18.216;2022-10-29T04:04:15;11.83;88.04
74224;SHT31;62585;49.706;18.216;2022-10-29T04:06:41;11.73;88.23
74224;SHT31;62585;49.706;18.216;2022-10-29T04:09:07;11.67;88.36
74224;SHT31;62585;49.706;18.216;2022-10-29T04:11:33;11.69;88.37
74224;SHT31;62585;49.706;18.216;2022-10-29T04:13:58;11.72;88.40
74224;SHT31;62585;49.706;18.216;2022-10-29T04:16:24;11.76;88.15
74224;SHT31;62585;49.706;18.216;2022-10-29T04:18:50;11.70;88.17
74224;SHT31;62585;49.706;18.216;2022-10-29T04:21:16;11.72;88.09
74224;SHT31;62585;49.706;18.216;2022-10-29T04:23:42;11.77;87.62
74224;SHT31;62585;49.706;18.216;2022-10-29T04:26:08;11.79;87.50
74224;SHT31;62585;49.706;18.216;2022-10-29T04:28:34;11.84;87.58
74224;SHT31;62585;49.706;18.216;2022-10-29T04:31:04;11.82;88.05
74224;SHT31;62585;49.706;18.216;2022-10-29T04:33:30;11.90;87.96
74224;SHT31;62585;49.706;18.216;2022-10-29T04:35:56;11.83;88.32
74224;SHT31;62585;49.706;18.216;2022-10-29T04:38:21;11.84;88.09
74224;SHT31;62585;49.706;18.216;2022-10-29T04:40:47;11.87;87.89
74224;SHT31;62585;49.706;18.216;2022-10-29T04:43:13;11.94;87.73
74224;SHT31;62585;49.706;18.216;2022-10-29T04:45:39;11.93;87.81
74224;SHT31;62585;49.706;18.216;2022-10-29T04:48:05;11.94;88.04
74224;SHT31;62585;49.706;18.216;2022-10-29T04:50:32;11.97;87.98
74224;SHT31;62585;49.706;18.216;2022-10-29T04:53:02;11.83;88.71
74224;SHT31;62585;49.706;18.216;2022-10-29T04:55:28;11.84;88.59
74224;SHT31;62585;49.706;18.216;2022-10-29T04:57:54;11.77;89.08
74224;SHT31;62585;49.706;18.216;2022-10-29T05:00:21;11.87;88.76
74224;SHT31;62585;49.706;18.216;2022-10-29T05:02:47;11.87;88.51
74224;SHT31;62585;49.706;18.216;2022-10-29T05:05:18;11.86;88.81
74224;SHT31;62585;49.706;18.216;2022-10-29T05:07:44;11.84;88.90
74224;SHT31;62585;49.706;18.216;2022-10-29T05:10:10;11.82;89.13
74224;SHT31;62585;49.706;18.216;2022-10-29T05:12:35;11.65;89.51
74224;SHT31;62585;49.706;18.216;2022-10-29T05:15:02;11.63;89.72
74224;SHT31;62585;49.706;18.216;2022-10-29T05:17:27;11.65;89.28
74224;SHT31;62585;49.706;18.216;2022-10-29T05:19:53;11.75;88.98
74224;SHT31;62585;49.706;18.216;2022-10-29T05:22:19;11.72;89.19
74224;SHT31;62585;49.706;18.216;2022-10-29T05:24:45;11.72;88.96
74224;SHT31;62585;49.706;18.216;2022-10-29T05:27:10;11.70;89.06
74224;SHT31;62585;49.706;18.216;2022-10-29T05:29:36;11.67;89.06
74224;SHT31;62585;49.706;18.216;2022-10-29T05:32:02;11.72;88.77
74224;SHT31;62585;49.706;18.216;2022-10-29T05:34:28;11.66;89.07
74224;SHT31;62585;49.706;18.216;2022-10-29T05:36:53;11.70;88.81
74224;SHT31;62585;49.706;18.216;2022-10-29T05:39:19;11.79;88.54
74224;SHT31;62585;49.706;18.216;2022-10-29T05:41:45;11.76;88.63
74224;SHT31;62585;49.706;18.216;2022-10-29T05:44:11;11.77;88.44
74224;SHT31;62585;49.706;18.216;2022-10-29T05:46:37;11.80;88.27
74224;SHT31;62585;49.706;18.216;2022-10-29T05:49:03;11.89;88.02
74224;SHT31;62585;49.706;18.216;2022-10-29T05:51:29;11.90;87.88
74224;SHT31;62585;49.706;18.216;2022-10-29T05:53:54;11.93;87.44
74224;SHT31;62585;49.706;18.216;2022-10-29T05:56:20;11.87;87.76
74224;SHT31;62585;49.706;18.216;2022-10-29T05:58:50;11.94;87.18
74224;SHT31;62585;49.706;18.216;2022-10-29T06:01:16;11.96;87.01
74224;SHT31;62585;49.706;18.216;2022-10-29T06:03:44;11.97;87.13
74224;SHT31;62585;49.706;18.216;2022-10-29T06:06:10;12.01;87.10
74224;SHT31;62585;49.706;18.216;2022-10-29T06:08:36;12.00;86.88
74224;SHT31;62585;49.706;18.216;2022-10-29T06:11:02;12.00;86.88
74224;SHT31;62585;49.706;18.216;2022-10-29T06:13:28;12.04;86.53
74224;SHT31;62585;49.706;18.216;2022-10-29T06:15:57;12.04;86.70
74224;SHT31;62585;49.706;18.216;2022-10-29T06:18:24;12.04;86.74
74224;SHT31;62585;49.706;18.216;2022-10-29T06:20:49;12.04;86.68
74224;SHT31;62585;49.706;18.216;2022-10-29T06:23:15;12.08;86.68
74224;SHT31;62585;49.706;18.216;2022-10-29T06:25:41;12.10;86.86
74224;SHT31;62585;49.706;18.216;2022-10-29T06:28:09;12.14;86.45
74224;SHT31;62585;49.706;18.216;2022-10-29T06:30:36;12.16;86.84
74224;SHT31;62585;49.706;18.216;2022-10-29T06:33:03;12.17;86.56
74224;SHT31;62585;49.706;18.216;2022-10-29T06:35:29;12.25;86.33
74224;SHT31;62585;49.706;18.216;2022-10-29T06:37:55;12.27;86.30
74224;SHT31;62585;49.706;18.216;2022-10-29T06:40:21;12.32;85.93
74224;SHT31;62585;49.706;18.216;2022-10-29T06:42:47;12.35;86.21
74224;SHT31;62585;49.706;18.216;2022-10-29T06:45:13;12.42;85.87
74224;SHT31;62585;49.706;18.216;2022-10-29T06:47:43;12.35;85.93
74224;SHT31;62585;49.706;18.216;2022-10-29T06:50:11;12.42;86.09
74224;SHT31;62585;49.706;18.216;2022-10-29T06:52:37;12.42;85.91
74224;SHT31;62585;49.706;18.216;2022-10-29T06:55:04;12.45;85.80
74224;SHT31;62585;49.706;18.216;2022-10-29T06:57:31;12.45;86.02
74224;SHT31;62585;49.706;18.216;2022-10-29T06:59:57;12.51;85.80
74224;SHT31;62585;49.706;18.216;2022-10-29T07:02:23;12.45;86.26
74224;SHT31;62585;49.706;18.216;2022-10-29T07:04:49;12.42;86.60
74224;SHT31;62585;49.706;18.216;2022-10-29T07:07:15;12.37;86.58
74224;SHT31;62585;49.706;18.216;2022-10-29T07:09:41;12.35;86.92
74224;SHT31;62585;49.706;18.216;2022-10-29T07:12:09;12.32;87.23
74224;SHT31;62585;49.706;18.216;2022-10-29T07:14:36;12.37;86.41
74224;SHT31;62585;49.706;18.216;2022-10-29T07:17:01;12.42;86.05
74224;SHT31;62585;49.706;18.216;2022-10-29T07:19:27;12.45;86.10
74224;SHT31;62585;49.706;18.216;2022-10-29T07:21:53;12.51;85.75
74224;SHT31;62585;49.706;18.216;2022-10-29T07:24:18;12.48;85.71
74224;SHT31;62585;49.706;18.216;2022-10-29T07:26:44;12.51;85.41
74224;SHT31;62585;49.706;18.216;2022-10-29T07:29:10;12.56;85.69
74224;SHT31;62585;49.706;18.216;2022-10-29T07:31:36;12.62;85.45
74224;SHT31;62585;49.706;18.216;2022-10-29T07:34:01;12.68;85.78
74224;SHT31;62585;49.706;18.216;2022-10-29T07:36:30;12.80;85.34
74224;SHT31;62585;49.706;18.216;2022-10-29T07:38:56;12.70;85.98
74224;SHT31;62585;49.706;18.216;2022-10-29T07:41:22;12.70;86.03
74224;SHT31;62585;49.706;18.216;2022-10-29T07:43:48;12.70;86.17
74224;SHT31;62585;49.706;18.216;2022-10-29T07:46:13;12.76;86.26
74224;SHT31;62585;49.706;18.216;2022-10-29T07:48:40;12.83;85.95
74224;SHT31;62585;49.706;18.216;2022-10-29T07:51:06;12.68;86.38
74224;SHT31;62585;49.706;18.216;2022-10-29T07:53:32;12.69;86.17
74224;SHT31;62585;49.706;18.216;2022-10-29T07:55:58;12.61;86.82
74224;SHT31;62585;49.706;18.216;2022-10-29T07:58:24;12.66;86.59
74224;SHT31;62585;49.706;18.216;2022-10-29T08:00:51;12.75;86.47
74224;SHT31;62585;49.706;18.216;2022-10-29T08:03:17;12.73;86.27
74224;SHT31;62585;49.706;18.216;2022-10-29T08:05:42;12.80;86.16
74224;SHT31;62585;49.706;18.216;2022-10-29T08:08:08;12.92;85.73
74224;SHT31;62585;49.706;18.216;2022-10-29T08:10:34;12.80;85.94
74224;SHT31;62585;49.706;18.216;2022-10-29T08:13:02;12.86;85.87
74224;SHT31;62585;49.706;18.216;2022-10-29T08:15:29;12.90;85.98
74224;SHT31;62585;49.706;18.216;2022-10-29T08:17:56;12.83;86.40
74224;SHT31;62585;49.706;18.216;2022-10-29T08:20:24;12.83;86.35
74224;SHT31;62585;49.706;18.216;2022-10-29T08:22:50;12.89;86.41
74224;SHT31;62585;49.706;18.216;2022-10-29T08:25:16;12.90;86.34
74224;SHT31;62585;49.706;18.216;2022-10-29T08:27:42;13.00;86.19
74224;SHT31;62585;49.706;18.216;2022-10-29T08:30:10;13.04;85.89
74224;SHT31;62585;49.706;18.216;2022-10-29T08:32:36;12.85;86.15
74224;SHT31;62585;49.706;18.216;2022-10-29T08:35:02;12.90;86.50
74224;SHT31;62585;49.706;18.216;2022-10-29T08:37:28;12.92;86.34
74224;SHT31;62585;49.706;18.216;2022-10-29T08:39:53;13.14;85.73
74224;SHT31;62585;49.706;18.216;2022-10-29T08:45:09;13.24;84.54
74224;SHT31;62585;49.706;18.216;2022-10-29T08:50:29;13.62;83.23
74224;SHT31;62585;49.706;18.216;2022-10-29T08:52:55;13.78;83.14
74224;SHT31;62585;49.706;18.216;2022-10-29T08:55:36;14.12;82.12
74224;SHT31;62585;49.706;18.216;2022-10-29T08:58:12;14.37;80.74
74224;SHT31;62585;49.706;18.216;2022-10-29T09:00:41;14.37;80.96
74224;SHT31;62585;49.706;18.216;2022-10-29T09:03:11;14.44;80.22
74224;SHT31;62585;49.706;18.216;2022-10-29T09:08:43;14.60;79.83
74224;SHT31;62585;49.706;18.216;2022-10-29T09:25:30;14.36;80.27
74224;SHT31;62585;49.706;18.216;2022-10-29T09:30:42;14.99;78.39
74224;SHT31;62585;49.706;18.216;2022-10-29T09:33:16;15.22;78.04
74224;SHT31;62585;49.706;18.216;2022-10-29T09:35:45;15.26;77.14
74224;SHT31;62585;49.706;18.216;2022-10-29T09:38:16;15.25;77.57
74224;SHT31;62585;49.706;18.216;2022-10-29T09:40:45;15.08;78.15
74224;SHT31;62585;49.706;18.216;2022-10-29T09:43:24;14.95;78.33
74224;SHT31;62585;49.706;18.216;2022-10-29T09:46:35;15.20;78.19
74224;SHT31;62585;49.706;18.216;2022-10-29T09:49:11;15.35;77.13
74224;SHT31;62585;49.706;18.216;2022-10-29T09:51:52;15.36;76.52
74224;SHT31;62585;49.706;18.216;2022-10-29T09:54:20;15.49;76.75
74224;SHT31;62585;49.706;18.216;2022-10-29T09:56:47;15.71;76.44
74224;SHT31;62585;49.706;18.216;2022-10-29T10:01:46;15.68;75.43
74224;SHT31;62585;49.706;18.216;2022-10-29T10:04:29;15.74;75.37
74224;SHT31;62585;49.706;18.216;2022-10-29T10:07:08;15.64;75.64
74224;SHT31;62585;49.706;18.216;2022-10-29T10:12:23;15.77;75.29
74224;SHT31;62585;49.706;18.216;2022-10-29T10:17:56;15.95;74.49
74224;SHT31;62585;49.706;18.216;2022-10-29T10:20:31;15.90;73.87
74224;SHT31;62585;49.706;18.216;2022-10-29T10:22:57;15.74;75.38
74224;SHT31;62585;49.706;18.216;2022-10-29T10:25:38;16.36;73.02
74224;SHT31;62585;49.706;18.216;2022-10-29T10:28:22;16.64;73.28
74224;SHT31;62585;49.706;18.216;2022-10-29T10:33:31;16.59;72.96
74224;SHT31;62585;49.706;18.216;2022-10-29T10:36:07;16.28;73.17
74224;SHT31;62585;49.706;18.216;2022-10-29T10:38:39;16.63;72.00
74224;SHT31;62585;49.706;18.216;2022-10-29T10:41:06;16.42;73.16
74224;SHT31;62585;49.706;18.216;2022-10-29T10:43:33;16.34;72.91
74224;SHT31;62585;49.706;18.216;2022-10-29T10:46:05;16.29;73.03
74224;SHT31;62585;49.706;18.216;2022-10-29T10:48:35;16.09;73.78
74224;SHT31;62585;49.706;18.216;2022-10-29T10:51:25;15.67;75.08
74224;SHT31;62585;49.706;18.216;2022-10-29T10:53:52;15.83;74.99
74224;SHT31;62585;49.706;18.216;2022-10-29T10:56:19;15.64;75.52
74224;SHT31;62585;49.706;18.216;2022-10-29T10:58:53;15.53;75.60
74224;SHT31;62585;49.706;18.216;2022-10-29T11:01:40;15.57;75.86
74224;SHT31;62585;49.706;18.216;2022-10-29T11:04:15;15.88;75.41
74224;SHT31;62585;49.706;18.216;2022-10-29T11:06:45;16.60;73.39
74224;SHT31;62585;49.706;18.216;2022-10-29T11:09:23;16.60;72.89
74224;SHT31;62585;49.706;18.216;2022-10-29T11:14:42;16.88;72.28
74224;SHT31;62585;49.706;18.216;2022-10-29T11:17:31;16.80;71.94
74224;SHT31;62585;49.706;18.216;2022-10-29T11:20:10;17.01;71.51
74224;SHT31;62585;49.706;18.216;2022-10-29T11:22:51;17.08;70.86
74224;SHT31;62585;49.706;18.216;2022-10-29T11:25:42;16.64;72.77
74224;SHT31;62585;49.706;18.216;2022-10-29T11:31:13;16.57;72.63
74224;SHT31;62585;49.706;18.216;2022-10-29T11:36:21;15.87;75.53
74224;SHT31;62585;49.706;18.216;2022-10-29T11:39:01;15.73;75.47
74224;SHT31;62585;49.706;18.216;2022-10-29T11:43:57;15.30;76.73
74224;SHT31;62585;49.706;18.216;2022-10-29T11:46:53;15.61;76.83
74224;SHT31;62585;49.706;18.216;2022-10-29T11:52:28;15.71;75.58
74224;SHT31;62585;49.706;18.216;2022-10-29T12:00:20;16.70;73.28
74224;SHT31;62585;49.706;18.216;2022-10-29T12:05:57;16.21;74.33
74224;SHT31;62585;49.706;18.216;2022-10-29T12:08:46;15.80;75.54
74224;SHT31;62585;49.706;18.216;2022-10-29T12:16:38;15.29;77.50
74224;SHT31;62585;49.706;18.216;2022-10-29T12:19:40;15.08;78.61
74224;SHT31;62585;49.706;18.216;2022-10-29T12:24:48;15.12;78.29
74224;SHT31;62585;49.706;18.216;2022-10-29T12:27:34;15.19;78.30
74224;SHT31;62585;49.706;18.216;2022-10-29T12:30:08;14.96;78.86
74224;SHT31;62585;49.706;18.216;2022-10-29T12:35:24;14.64;80.06
74224;SHT31;62585;49.706;18.216;2022-10-29T12:41:44;14.78;79.69
74224;SHT31;62585;49.706;18.216;2022-10-29T12:44:14;14.89;79.49
74224;SHT31;62585;49.706;18.216;2022-10-29T12:46:58;14.82;79.42
74224;SHT31;62585;49.706;18.216;2022-10-29T12:49:48;14.67;80.48
74224;SHT31;62585;49.706;18.216;2022-10-29T12:54:46;14.88;79.61
74224;SHT31;62585;49.706;18.216;2022-10-29T12:59:41;14.72;80.36
74224;SHT31;62585;49.706;18.216;2022-10-29T13:02:40;14.63;80.16
74224;SHT31;62585;49.706;18.216;2022-10-29T13:21:03;14.02;82.79
74224;SHT31;62585;49.706;18.216;2022-10-29T13:23:33;14.02;82.66
74224;SHT31;62585;49.706;18.216;2022-10-29T13:26:01;14.14;82.52
74224;SHT31;62585;49.706;18.216;2022-10-29T13:38:59;13.98;83.06
74224;SHT31;62585;49.706;18.216;2022-10-29T13:41:37;13.95;83.19
74224;SHT31;62585;49.706;18.216;2022-10-29T13:46:38;13.89;83.54
74224;SHT31;62585;49.706;18.216;2022-10-29T13:51:52;13.95;83.29
74224;SHT31;62585;49.706;18.216;2022-10-29T13:54:42;14.05;83.33
74224;SHT31;62585;49.706;18.216;2022-10-29T13:59:57;13.75;84.03
74224;SHT31;62585;49.706;18.216;2022-10-29T14:05:14;13.68;84.56
74224;SHT31;62585;49.706;18.216;2022-10-29T14:08:06;13.62;84.61
74224;SHT31;62585;49.706;18.216;2022-10-29T14:15:57;13.47;85.01
74224;SHT31;62585;49.706;18.216;2022-10-29T14:18:24;13.57;85.10
74224;SHT31;62585;49.706;18.216;2022-10-29T14:20:57;13.62;84.71
74224;SHT31;62585;49.706;18.216;2022-10-29T14:23:25;13.58;84.59
74224;SHT31;62585;49.706;18.216;2022-10-29T14:25:59;13.68;84.55
74224;SHT31;62585;49.706;18.216;2022-10-29T14:28:29;13.78;83.87
74224;SHT31;62585;49.706;18.216;2022-10-29T14:31:24;13.75;84.15
74224;SHT31;62585;49.706;18.216;2022-10-29T14:33:58;13.79;83.90
74224;SHT31;62585;49.706;18.216;2022-10-29T14:39:01;13.69;84.04
74224;SHT31;62585;49.706;18.216;2022-10-29T14:41:29;13.50;84.75
74224;SHT31;62585;49.706;18.216;2022-10-29T14:46:24;13.57;84.54
74224;SHT31;62585;49.706;18.216;2022-10-29T14:51:23;13.53;84.85
74224;SHT31;62585;49.706;18.216;2022-10-29T14:53:58;13.59;84.63
74224;SHT31;62585;49.706;18.216;2022-10-29T14:56:37;13.47;85.18
74224;SHT31;62585;49.706;18.216;2022-10-29T14:59:20;13.58;84.82
74224;SHT31;62585;49.706;18.216;2022-10-29T15:01:51;13.45;85.19
74224;SHT31;62585;49.706;18.216;2022-10-29T15:04:24;13.50;85.16
74224;SHT31;62585;49.706;18.216;2022-10-29T15:06:55;13.47;84.99
74224;SHT31;62585;49.706;18.216;2022-10-29T15:09:38;13.48;85.18
74224;SHT31;62585;49.706;18.216;2022-10-29T15:12:18;13.44;85.22
74224;SHT31;62585;49.706;18.216;2022-10-29T15:14:46;13.37;85.41
74224;SHT31;62585;49.706;18.216;2022-10-29T15:17:26;13.45;85.33
74224;SHT31;62585;49.706;18.216;2022-10-29T15:19:57;13.47;85.33
74224;SHT31;62585;49.706;18.216;2022-10-29T15:22:38;13.26;85.96
74224;SHT31;62585;49.706;18.216;2022-10-29T15:25:17;13.38;85.66
74224;SHT31;62585;49.706;18.216;2022-10-29T15:27:45;13.37;85.47
74224;SHT31;62585;49.706;18.216;2022-10-29T15:30:20;13.31;85.97
74224;SHT31;62585;49.706;18.216;2022-10-29T15:32:47;13.24;86.26
74224;SHT31;62585;49.706;18.216;2022-10-29T15:35:18;13.14;86.79
74224;SHT31;62585;49.706;18.216;2022-10-29T15:37:45;13.07;86.96
74224;SHT31;62585;49.706;18.216;2022-10-29T15:40:22;13.07;87.22
74224;SHT31;62585;49.706;18.216;2022-10-29T15:42:48;13.10;87.12
74224;SHT31;62585;49.706;18.216;2022-10-29T15:45:24;13.10;87.10
74224;SHT31;62585;49.706;18.216;2022-10-29T15:47:55;13.04;87.30
74224;SHT31;62585;49.706;18.216;2022-10-29T15:50:25;12.96;87.67
74224;SHT31;62585;49.706;18.216;2022-10-29T15:52:55;12.95;87.71
74224;SHT31;62585;49.706;18.216;2022-10-29T15:55:25;12.93;87.82
74224;SHT31;62585;49.706;18.216;2022-10-29T15:57:51;12.92;87.84
74224;SHT31;62585;49.706;18.216;2022-10-29T16:00:22;12.85;88.04
74224;SHT31;62585;49.706;18.216;2022-10-29T16:02:48;12.88;88.00
74224;SHT31;62585;49.706;18.216;2022-10-29T16:05:14;12.96;87.52
74224;SHT31;62585;49.706;18.216;2022-10-29T16:07:41;13.03;87.41
74224;SHT31;62585;49.706;18.216;2022-10-29T16:10:16;13.04;87.04
74224;SHT31;62585;49.706;18.216;2022-10-29T16:12:42;13.03;87.28
74224;SHT31;62585;49.706;18.216;2022-10-29T16:15:13;13.07;86.85
74224;SHT31;62585;49.706;18.216;2022-10-29T16:17:39;13.00;87.12
74224;SHT31;62585;49.706;18.216;2022-10-29T16:20:05;12.99;87.13
74224;SHT31;62585;49.706;18.216;2022-10-29T16:22:31;13.04;86.89
74224;SHT31;62585;49.706;18.216;2022-10-29T16:24:57;13.10;86.41
74224;SHT31;62585;49.706;18.216;2022-10-29T16:27:22;13.11;86.51
74224;SHT31;62585;49.706;18.216;2022-10-29T16:29:48;13.20;86.10
74224;SHT31;62585;49.706;18.216;2022-10-29T16:32:16;13.17;85.80
74224;SHT31;62585;49.706;18.216;2022-10-29T16:34:43;13.03;86.91
74224;SHT31;62585;49.706;18.216;2022-10-29T16:37:17;13.10;86.52
74224;SHT31;62585;49.706;18.216;2022-10-29T16:39:43;12.93;87.15
74224;SHT31;62585;49.706;18.216;2022-10-29T16:42:29;12.99;86.73
74224;SHT31;62585;49.706;18.216;2022-10-29T16:44:55;13.04;86.62
74224;SHT31;62585;49.706;18.216;2022-10-29T16:47:21;13.00;86.99
74224;SHT31;62585;49.706;18.216;2022-10-29T16:49:46;13.04;86.64
74224;SHT31;62585;49.706;18.216;2022-10-29T16:52:12;13.14;86.26
74224;SHT31;62585;49.706;18.216;2022-10-29T16:54:38;13.16;86.21
74224;SHT31;62585;49.706;18.216;2022-10-29T16:57:04;13.06;86.48
74224;SHT31;62585;49.706;18.216;2022-10-29T16:59:30;13.07;86.43
74224;SHT31;62585;49.706;18.216;2022-10-29T17:01:55;13.17;86.05
74224;SHT31;62585;49.706;18.216;2022-10-29T17:04:21;13.02;86.62
74224;SHT31;62585;49.706;18.216;2022-10-29T17:06:47;13.09;86.51
74224;SHT31;62585;49.706;18.216;2022-10-29T17:09:13;13.14;86.03
74224;SHT31;62585;49.706;18.216;2022-10-29T17:11:39;13.00;86.60
74224;SHT31;62585;49.706;18.216;2022-10-29T17:14:05;12.96;87.03
74224;SHT31;62585;49.706;18.216;2022-10-29T17:16:30;12.69;87.81
74224;SHT31;62585;49.706;18.216;2022-10-29T17:18:56;12.75;87.83
74224;SHT31;62585;49.706;18.216;2022-10-29T17:21:23;12.79;87.61
74224;SHT31;62585;49.706;18.216;2022-10-29T17:23:49;12.76;87.89
74224;SHT31;62585;49.706;18.216;2022-10-29T17:26:15;12.83;87.60
74224;SHT31;62585;49.706;18.216;2022-10-29T17:28:42;12.73;87.94
74224;SHT31;62585;49.706;18.216;2022-10-29T17:31:09;12.76;87.81
74224;SHT31;62585;49.706;18.216;2022-10-29T17:33:36;12.80;87.70
74224;SHT31;62585;49.706;18.216;2022-10-29T17:36:05;12.73;87.86
74224;SHT31;62585;49.706;18.216;2022-10-29T17:38:32;12.72;88.05
74224;SHT31;62585;49.706;18.216;2022-10-29T17:40:58;12.66;88.27
74224;SHT31;62585;49.706;18.216;2022-10-29T17:43:24;12.76;88.08
74224;SHT31;62585;49.706;18.216;2022-10-29T17:45:49;12.80;87.77
74224;SHT31;62585;49.706;18.216;2022-10-29T17:48:16;12.79;88.01
74224;SHT31;62585;49.706;18.216;2022-10-29T17:50:54;12.82;87.99
74224;SHT31;62585;49.706;18.216;2022-10-29T17:53:20;12.82;88.04
74224;SHT31;62585;49.706;18.216;2022-10-29T17:55:47;12.80;88.09
74224;SHT31;62585;49.706;18.216;2022-10-29T17:58:15;12.72;88.24